Time;durP1;ratioP1;P1;durP2;ratioP2;P2;SDS_P1;SDS_P2;PMS_P1;PMS_P2;Temp;Humidity;BMP_temperature;BMP_pressure;BME280_temperature;BME280_humidity;BME280_pressure;Samples;Min_cycle;Max_cycle;Signal;HPM_P1;HPM_P2
2022/02/16 00:01:20;;;;;;;3.37;2.10;;;6.50;1.00;7.00;99866.00;;;;5065205;28;20505;-80
2022/02/16 00:03:48;;;;;;;4.73;2.43;;;6.60;1.00;7.00;99844.00;;;;5036243;28;20571;-78
2022/02/16 00:06:18;;;;;;;6.70;2.40;;;6.50;1.00;7.00;99877.00;;;;5020333;28;20487;-78
2022/02/16 00:08:47;;;;;;;8.13;2.77;;;6.90;1.00;7.00;99874.00;;;;5017510;28;20499;-79
2022/02/16 00:11:16;;;;;;;6.50;2.80;;;6.50;1.00;7.00;99834.00;;;;5018753;28;21018;-78
2022/02/16 00:13:44;;;;;;;4.87;2.63;;;6.60;1.00;7.10;99845.00;;;;5069097;28;20456;-78
2022/02/16 00:16:12;;;;;;;3.70;2.00;;;6.70;1.00;7.10;99817.00;;;;5049861;28;20460;-79
2022/02/16 00:18:41;;;;;;;5.83;2.40;;;6.60;1.00;7.00;99837.00;;;;5037277;28;20453;-79
2022/02/16 00:21:10;;;;;;;4.40;2.60;;;6.70;1.00;7.00;99822.00;;;;5039689;28;20471;-79
2022/02/16 00:23:39;;;;;;;4.03;2.60;;;6.70;1.00;7.10;99834.00;;;;5040343;28;20445;-79
2022/02/16 00:26:08;;;;;;;6.30;1.93;;;6.60;1.00;7.10;99853.00;;;;5042945;28;20480;-78
2022/02/16 00:28:37;;;;;;;5.10;2.50;;;6.60;1.00;7.00;99832.00;;;;5055993;28;20479;-78
2022/02/16 00:31:06;;;;;;;5.60;2.70;;;6.60;1.00;7.00;99800.00;;;;5076731;28;20555;-79
2022/02/16 00:33:34;;;;;;;6.30;2.70;;;6.60;1.00;7.10;99817.00;;;;5058636;28;20433;-78
2022/02/16 00:36:04;;;;;;;6.90;2.70;;;6.60;1.00;7.10;99851.00;;;;5063071;28;20504;-79
2022/02/16 00:38:33;;;;;;;4.57;2.07;;;6.60;1.00;7.10;99783.00;;;;5065299;28;20471;-79
2022/02/16 00:41:03;;;;;;;5.33;2.90;;;6.60;1.00;7.10;99828.00;;;;5078934;28;20492;-77
2022/02/16 00:43:31;;;;;;;3.40;1.90;;;6.70;1.00;7.00;99809.00;;;;5086382;28;20519;-77
2022/02/16 00:46:00;;;;;;;3.50;2.20;;;6.60;1.00;7.00;99782.00;;;;5047718;28;20458;-78
2022/02/16 00:48:28;;;;;;;5.40;2.80;;;6.90;1.00;7.10;99808.00;;;;5053110;28;20453;-78
2022/02/16 00:50:56;;;;;;;4.97;2.30;;;6.60;1.00;7.10;99809.00;;;;5038896;28;20476;-78
2022/02/16 00:53:27;;;;;;;4.70;2.40;;;6.70;1.00;7.10;99807.00;;;;5053467;28;20532;-79
2022/02/16 00:55:55;;;;;;;6.10;2.13;;;6.60;1.00;7.10;99812.00;;;;5052274;28;20810;-78
2022/02/16 00:58:25;;;;;;;6.20;3.00;;;6.60;1.00;7.20;99805.00;;;;5033787;28;20468;-80
2022/02/16 01:00:54;;;;;;;5.77;2.47;;;6.80;1.00;7.10;99797.00;;;;5032078;28;20505;-80
2022/02/16 01:03:22;;;;;;;5.37;2.30;;;6.70;1.00;7.10;99804.00;;;;5036766;28;20851;-81
2022/02/16 01:05:50;;;;;;;5.93;2.80;;;6.70;1.00;7.10;99788.00;;;;5068806;28;20464;-79
2022/02/16 01:08:19;;;;;;;4.10;2.50;;;6.70;1.00;7.10;99803.00;;;;5068331;28;20452;-81
2022/02/16 01:10:48;;;;;;;8.13;3.00;;;6.60;1.00;7.10;99789.00;;;;5035136;28;20476;-80
2022/02/16 01:13:19;;;;;;;4.57;2.43;;;6.60;1.00;7.00;99792.00;;;;5067555;28;20467;-79
2022/02/16 01:15:49;;;;;;;6.73;2.40;;;6.60;1.00;7.10;99771.00;;;;5036417;28;20460;-80
2022/02/16 01:18:17;;;;;;;4.23;2.70;;;6.70;1.00;7.10;99770.00;;;;5018128;28;20500;-79
2022/02/16 01:20:47;;;;;;;4.40;2.60;;;6.70;1.00;7.10;99767.00;;;;5035371;28;20572;-79
2022/02/16 01:23:16;;;;;;;4.57;2.57;;;6.60;1.00;7.10;99750.00;;;;5036024;28;20506;-81
2022/02/16 01:25:46;;;;;;;4.73;2.30;;;6.70;1.00;7.00;99767.00;;;;5052441;28;20444;-79
2022/02/16 01:28:26;;;;;;;7.63;3.10;;;6.60;1.00;7.00;99763.00;;;;5037344;28;20456;-80
2022/02/16 01:30:57;;;;;;;7.17;2.63;;;6.60;1.00;6.90;99755.00;;;;5032395;28;21096;-81
2022/02/16 01:33:31;;;;;;;4.50;2.63;;;6.50;1.00;6.90;99773.00;;;;5065391;28;20514;-79
2022/02/16 01:36:02;;;;;;;5.13;2.83;;;6.50;1.00;7.00;99747.00;;;;5067658;28;20921;-79
2022/02/16 01:38:30;;;;;;;4.97;2.50;;;6.50;1.00;6.90;99747.00;;;;5066062;28;20460;-79
2022/02/16 01:41:18;;;;;;;5.90;3.00;;;6.50;1.00;7.00;99737.00;;;;5034142;28;20464;-79
2022/02/16 01:43:57;;;;;;;5.53;3.33;;;6.50;1.00;6.90;99722.00;;;;5064869;28;20560;-79
2022/02/16 01:46:27;;;;;;;5.33;3.10;;;6.50;1.00;7.00;99724.00;;;;5032640;28;20527;-80
2022/02/16 01:48:59;;;;;;;6.67;3.10;;;6.50;1.00;7.00;99718.00;;;;5047360;28;20988;-79
2022/02/16 01:51:33;;;;;;;10.10;3.03;;;6.60;1.00;7.00;99726.00;;;;5031774;28;20924;-78
2022/02/16 01:54:01;;;;;;;7.23;3.10;;;6.50;1.00;6.90;99737.00;;;;5066843;28;20484;-79
2022/02/16 01:56:32;;;;;;;7.03;2.67;;;6.40;1.00;6.90;99716.00;;;;5039385;28;20480;-79
2022/02/16 01:59:01;;;;;;;7.47;3.20;;;6.40;1.00;6.90;99716.00;;;;5065801;28;20530;-81
2022/02/16 02:01:51;;;;;;;5.83;3.37;;;6.50;1.00;6.90;99704.00;;;;5034802;28;20615;-79
2022/02/16 02:04:21;;;;;;;7.10;3.27;;;6.50;1.00;6.80;99703.00;;;;5068436;28;21101;-78
2022/02/16 02:06:53;;;;;;;7.17;2.70;;;6.40;1.00;6.90;99688.00;;;;5036327;28;20541;-79
2022/02/16 02:09:22;;;;;;;6.27;3.10;;;6.40;1.00;6.90;99693.00;;;;5035300;28;20448;-79
2022/02/16 02:11:50;;;;;;;5.73;3.00;;;6.50;1.00;6.90;99691.00;;;;5038201;28;20603;-79
2022/02/16 02:14:19;;;;;;;8.20;3.13;;;6.50;1.00;7.00;99686.00;;;;5038430;28;20536;-79
2022/02/16 02:17:09;;;;;;;5.50;2.97;;;6.50;1.00;7.00;99682.00;;;;5035549;28;20475;-80
2022/02/16 02:19:39;;;;;;;6.40;2.60;;;6.60;1.00;6.90;99683.00;;;;5035171;28;20972;-79
2022/02/16 02:22:11;;;;;;;6.77;2.93;;;6.90;1.00;6.90;99673.00;;;;5033740;28;20957;-79
2022/02/16 02:24:39;;;;;;;8.57;3.20;;;6.40;1.00;6.90;99669.00;;;;5036100;28;20496;-79
2022/02/16 02:27:08;;;;;;;6.97;3.37;;;6.50;1.00;7.00;99675.00;;;;5068669;28;21444;-77
2022/02/16 02:29:39;;;;;;;6.73;3.60;;;6.50;1.00;6.90;99656.00;;;;5036174;28;21285;-78
2022/02/16 02:32:08;;;;;;;8.40;3.97;;;6.70;1.00;6.90;99644.00;;;;5065983;28;20460;-78
2022/02/16 02:34:36;;;;;;;4.70;2.70;;;6.50;1.00;6.90;99640.00;;;;5036332;28;21050;-78
2022/02/16 02:37:06;;;;;;;5.90;3.43;;;6.50;1.00;6.80;99647.00;;;;5037709;28;20464;-79
2022/02/16 02:39:36;;;;;;;4.47;2.90;;;6.40;1.00;6.90;99645.00;;;;5042039;28;20853;-79
2022/02/16 02:42:06;;;;;;;4.20;2.70;;;6.40;1.00;6.80;99627.00;;;;5053900;28;20484;-79
2022/02/16 02:44:35;;;;;;;6.10;3.40;;;6.40;1.00;6.80;99615.00;;;;5037423;28;20521;-79
2022/02/16 02:47:04;;;;;;;6.80;3.40;;;6.30;1.00;6.90;99623.00;;;;5037532;28;20504;-80
2022/02/16 02:49:36;;;;;;;7.00;3.53;;;6.40;1.00;6.90;99623.00;;;;5037254;28;20440;-79
2022/02/16 02:52:06;;;;;;;7.03;2.53;;;6.40;1.00;6.90;99616.00;;;;5052712;28;20460;-79
2022/02/16 02:54:37;;;;;;;9.07;3.30;;;6.40;1.00;6.90;99606.00;;;;5033040;28;20571;-81
2022/02/16 02:57:05;;;;;;;4.50;3.00;;;6.40;1.00;6.80;99614.00;;;;5051031;28;20571;-79
2022/02/16 02:59:34;;;;;;;6.00;2.93;;;6.40;1.00;6.80;99617.00;;;;5069397;28;20899;-79
2022/02/16 03:02:03;;;;;;;7.80;2.90;;;6.40;1.00;6.80;99610.00;;;;5035789;28;20472;-79
2022/02/16 03:04:31;;;;;;;6.70;3.20;;;6.40;1.00;6.80;99598.00;;;;5067873;28;21007;-81
2022/02/16 03:07:00;;;;;;;5.43;2.83;;;6.70;1.00;6.80;99598.00;;;;5052973;28;20836;-77
2022/02/16 03:09:29;;;;;;;5.07;2.83;;;6.40;1.00;6.70;99590.00;;;;5069243;28;20456;-81
2022/02/16 03:11:58;;;;;;;8.47;3.80;;;6.30;1.00;6.80;99595.00;;;;5034588;28;20468;-78
2022/02/16 03:14:28;;;;;;;6.90;2.77;;;6.30;1.00;6.80;99590.00;;;;5032411;28;20542;-81
2022/02/16 03:16:57;;;;;;;6.13;3.10;;;6.40;1.00;6.70;99578.00;;;;5071362;28;20543;-81
2022/02/16 03:19:25;;;;;;;6.63;2.90;;;6.30;1.00;6.70;99572.00;;;;5043090;28;20503;-80
2022/02/16 03:21:55;;;;;;;4.93;2.83;;;6.20;1.00;6.70;99579.00;;;;5070826;28;20471;-78
2022/02/16 03:24:24;;;;;;;8.03;3.00;;;6.20;1.00;6.70;99577.00;;;;5037297;28;20461;-79
2022/02/16 03:26:52;;;;;;;5.40;3.00;;;6.20;1.00;6.70;99578.00;;;;5038407;28;20658;-80
2022/02/16 03:29:32;;;;;;;3.80;2.50;;;6.20;1.00;6.70;99549.00;;;;5038021;28;20449;-79
2022/02/16 03:32:01;;;;;;;6.90;2.83;;;6.20;1.00;6.70;99557.00;;;;5047522;28;20467;-79
2022/02/16 03:34:29;;;;;;;3.30;2.53;;;6.20;1.00;6.70;99564.00;;;;5044817;28;21274;-79
2022/02/16 03:36:59;;;;;;;7.70;2.57;;;6.20;1.00;6.70;99561.00;;;;5038070;28;20449;-80
2022/02/16 03:39:27;;;;;;;8.70;2.97;;;6.20;1.00;6.70;99547.00;;;;5034612;28;20500;-79
2022/02/16 03:41:55;;;;;;;5.80;3.23;;;6.20;1.00;6.70;99547.00;;;;5080515;28;20530;-80
2022/02/16 03:44:25;;;;;;;4.00;2.90;;;6.20;1.00;6.60;99549.00;;;;5068329;28;21331;-80
2022/02/16 03:46:58;;;;;;;6.93;2.70;;;6.20;1.00;6.70;99544.00;;;;5056233;28;20449;-79
2022/02/16 03:49:27;;;;;;;3.83;2.90;;;6.20;1.00;6.60;99550.00;;;;5063001;28;20464;-80
2022/02/16 03:51:59;;;;;;;4.87;2.70;;;6.10;1.00;6.60;99523.00;;;;5063439;28;20863;-79
2022/02/16 03:54:28;;;;;;;6.33;2.87;;;6.10;1.00;6.60;99540.00;;;;5061704;28;20464;-79
2022/02/16 03:56:58;;;;;;;5.50;4.57;;;6.10;1.00;6.70;99524.00;;;;5055584;28;20464;-78
2022/02/16 03:59:26;;;;;;;4.83;2.80;;;6.20;1.00;6.70;99532.00;;;;5036830;28;20483;-78
2022/02/16 04:02:19;;;;;;;5.60;3.20;;;6.30;1.00;6.70;99529.00;;;;5036489;28;20441;-79
2022/02/16 04:04:48;;;;;;;5.50;2.83;;;6.30;1.00;6.70;99531.00;;;;5057221;28;20964;-80
2022/02/16 04:07:17;;;;;;;5.03;2.40;;;6.30;1.00;6.70;99514.00;;;;5088850;28;20467;-80
2022/02/16 04:09:46;;;;;;;5.63;3.10;;;6.20;1.00;6.70;99511.00;;;;5075131;28;20468;-80
2022/02/16 04:12:15;;;;;;;4.47;2.83;;;6.20;1.00;6.70;99526.00;;;;5061112;28;20452;-80
2022/02/16 04:14:45;;;;;;;4.17;2.57;;;6.20;1.00;6.70;99523.00;;;;5053941;28;20693;-81
2022/02/16 04:17:14;;;;;;;6.17;2.43;;;6.20;1.00;6.70;99514.00;;;;5053908;28;20543;-80
2022/02/16 04:19:44;;;;;;;4.30;2.70;;;6.30;1.00;6.70;99530.00;;;;5058273;28;20457;-79
2022/02/16 04:22:14;;;;;;;6.97;2.70;;;6.30;1.00;6.80;99533.00;;;;5054089;28;20484;-79
2022/02/16 04:24:43;;;;;;;5.97;2.47;;;6.30;1.00;6.70;99517.00;;;;5060012;28;20460;-80
2022/02/16 04:27:12;;;;;;;3.00;2.20;;;6.30;1.00;6.70;99512.00;;;;5043428;28;20468;-81
2022/02/16 04:29:41;;;;;;;6.67;2.80;;;6.20;1.00;6.70;99500.00;;;;5073430;28;20977;-78
2022/02/16 04:32:10;;;;;;;7.10;2.23;;;6.60;1.00;6.80;99483.00;;;;5033087;28;20992;-79
2022/02/16 04:34:38;;;;;;;9.67;2.20;;;6.40;1.00;6.80;99501.00;;;;5036547;28;20556;-78
2022/02/16 04:37:09;;;;;;;3.33;2.40;;;6.30;1.00;6.80;99505.00;;;;5034204;28;20534;-79
2022/02/16 04:39:38;;;;;;;6.03;2.80;;;6.40;1.00;6.80;99484.00;;;;5050104;28;20448;-79
2022/02/16 04:42:06;;;;;;;6.37;3.10;;;6.40;1.00;6.80;99496.00;;;;5035513;28;20491;-80
2022/02/16 04:44:35;;;;;;;5.63;2.40;;;6.30;1.00;6.80;99491.00;;;;5052903;28;20800;-79
2022/02/16 04:47:09;;;;;;;4.27;2.60;;;6.40;1.00;6.90;99497.00;;;;5036856;28;20863;-79
2022/02/16 04:49:38;;;;;;;3.67;2.53;;;6.40;1.00;6.80;99486.00;;;;5038542;28;20599;-79
2022/02/16 04:52:07;;;;;;;4.53;2.10;;;6.40;1.00;6.90;99478.00;;;;5039806;28;20491;-81
2022/02/16 04:54:39;;;;;;;4.17;2.40;;;6.50;1.00;6.90;99484.00;;;;5039023;28;20465;-78
2022/02/16 04:57:08;;;;;;;6.87;2.30;;;6.80;1.00;6.90;99479.00;;;;5049683;28;20480;-79
2022/02/16 04:59:44;;;;;;;3.60;2.00;;;6.50;1.00;7.00;99493.00;;;;5050309;28;20466;-78
2022/02/16 05:02:13;;;;;;;6.60;2.43;;;6.50;1.00;6.90;99468.00;;;;5066911;28;20453;-78
2022/02/16 05:04:42;;;;;;;3.37;2.30;;;6.50;1.00;7.00;99492.00;;;;5033509;28;20452;-78
2022/02/16 05:07:10;;;;;;;4.27;2.00;;;6.50;1.00;7.00;99474.00;;;;5019044;28;20547;-79
2022/02/16 05:09:41;;;;;;;4.53;2.07;;;6.50;1.00;7.00;99469.00;;;;5036406;28;20507;-79
2022/02/16 05:12:10;;;;;;;6.00;2.00;;;6.70;1.00;7.00;99467.00;;;;5052800;28;20444;-82
2022/02/16 05:14:39;;;;;;;4.30;2.10;;;6.50;1.00;6.90;99464.00;;;;5051924;28;20469;-81
2022/02/16 05:17:09;;;;;;;5.67;2.40;;;6.50;1.00;6.90;99459.00;;;;5073510;28;20445;-80
2022/02/16 05:19:40;;;;;;;2.97;2.00;;;6.50;1.00;6.90;99462.00;;;;5035522;28;20501;-81
2022/02/16 05:22:09;;;;;;;4.07;2.10;;;6.50;1.00;6.90;99452.00;;;;5039754;28;20479;-79
2022/02/16 05:24:44;;;;;;;2.93;1.83;;;6.50;1.00;7.00;99435.00;;;;5033431;28;20560;-80
2022/02/16 05:27:14;;;;;;;4.03;1.77;;;6.50;1.00;7.00;99434.00;;;;5042966;28;20470;-77
2022/02/16 05:29:43;;;;;;;3.63;1.77;;;6.60;1.00;7.00;99417.00;;;;5032245;28;20475;-80
2022/02/16 05:32:13;;;;;;;3.37;1.60;;;6.60;1.00;7.00;99412.00;;;;5068092;28;20547;-79
2022/02/16 05:34:42;;;;;;;4.80;2.30;;;6.60;1.00;7.00;99412.00;;;;5033402;28;20531;-77
2022/02/16 05:37:10;;;;;;;3.83;2.60;;;6.60;1.00;7.00;99397.00;;;;5030275;28;20464;-80
2022/02/16 05:39:39;;;;;;;4.90;2.27;;;6.60;1.00;7.00;99408.00;;;;5029516;28;20569;-78
2022/02/16 05:42:09;;;;;;;4.93;2.50;;;6.50;1.00;7.00;99410.00;;;;5017425;28;20463;-78
2022/02/16 05:44:44;;;;;;;6.53;2.33;;;6.50;1.00;7.00;99404.00;;;;5015356;28;20459;-79
2022/02/16 05:47:12;;;;;;;4.43;2.33;;;6.60;1.00;7.10;99394.00;;;;5066596;28;20488;-78
2022/02/16 05:49:40;;;;;;;2.33;1.67;;;6.80;1.00;7.00;99381.00;;;;5033538;28;20981;-78
2022/02/16 05:52:09;;;;;;;4.40;1.80;;;6.60;1.00;7.00;99388.00;;;;5067878;28;20452;-78
2022/02/16 05:54:38;;;;;;;3.43;2.00;;;6.60;1.00;7.10;99382.00;;;;5064416;28;20458;-78
2022/02/16 05:57:08;;;;;;;4.40;1.80;;;6.60;1.00;7.10;99408.00;;;;5031200;28;20987;-79
2022/02/16 05:59:39;;;;;;;3.80;1.90;;;6.70;1.00;7.10;99400.00;;;;5036900;28;20463;-79
2022/02/16 06:02:08;;;;;;;2.97;1.80;;;6.60;1.00;7.10;99368.00;;;;5039321;28;20464;-79
2022/02/16 06:04:36;;;;;;;3.50;1.60;;;7.00;1.00;7.10;99392.00;;;;5031283;28;21051;-80
2022/02/16 06:07:05;;;;;;;5.70;2.07;;;6.60;1.00;7.10;99375.00;;;;5030064;28;20460;-81
2022/02/16 06:09:34;;;;;;;2.47;1.43;;;6.70;1.00;7.20;99385.00;;;;5063915;28;20468;-80
2022/02/16 06:12:05;;;;;;;4.30;1.73;;;6.80;1.00;7.20;99373.00;;;;5019633;28;20496;-79
2022/02/16 06:14:35;;;;;;;3.93;2.03;;;6.80;1.00;7.20;99387.00;;;;5035306;28;20502;-81
2022/02/16 06:17:10;;;;;;;4.03;1.90;;;6.70;1.00;7.20;99390.00;;;;5017201;28;20476;-81
2022/02/16 06:19:38;;;;;;;3.83;2.10;;;6.70;1.00;7.20;99375.00;;;;5049479;28;20461;-79
2022/02/16 06:22:08;;;;;;;5.33;3.10;;;6.80;1.00;7.20;99375.00;;;;5032223;28;20504;-80
2022/02/16 06:24:37;;;;;;;4.37;2.10;;;6.80;1.00;7.30;99362.00;;;;5031966;28;20475;-78
2022/02/16 06:27:05;;;;;;;3.00;1.87;;;6.80;1.00;7.30;99367.00;;;;5032539;28;20486;-79
2022/02/16 06:29:35;;;;;;;4.00;2.10;;;6.90;1.00;7.30;99357.00;;;;5031348;28;20992;-80
2022/02/16 06:32:20;;;;;;;2.87;2.10;;;7.30;1.00;7.20;99341.00;;;;5026919;28;20503;-80
2022/02/16 06:34:51;;;;;;;7.07;2.50;;;6.80;1.00;7.20;99350.00;;;;5062052;28;20451;-79
2022/02/16 06:37:19;;;;;;;2.50;1.80;;;6.80;1.00;7.20;99358.00;;;;5034912;28;21434;-78
2022/02/16 06:39:48;;;;;;;3.80;1.70;;;6.80;1.00;7.20;99359.00;;;;5031289;28;20460;-79
2022/02/16 06:42:17;;;;;;;2.50;1.70;;;6.80;1.00;7.20;99357.00;;;;5030956;28;20954;-80
2022/02/16 06:44:47;;;;;;;4.87;1.87;;;6.80;1.00;7.30;99374.00;;;;5030989;28;20471;-78
2022/02/16 06:47:18;;;;;;;5.00;2.27;;;6.80;1.00;7.30;99356.00;;;;5032743;28;20509;-78
2022/02/16 06:49:47;;;;;;;3.70;1.80;;;6.90;1.00;7.30;99356.00;;;;5034574;28;20483;-79
2022/02/16 06:52:15;;;;;;;3.50;1.80;;;6.80;1.00;7.30;99365.00;;;;5023970;28;20444;-78
2022/02/16 06:54:44;;;;;;;4.23;1.43;;;6.90;1.00;7.30;99370.00;;;;5041908;28;20453;-78
2022/02/16 06:57:13;;;;;;;6.30;2.57;;;6.90;1.00;7.30;99361.00;;;;5036143;28;20456;-80
2022/02/16 06:59:57;;;;;;;4.13;2.20;;;6.90;1.00;7.30;99326.00;;;;5032906;28;20464;-81
2022/02/16 07:02:26;;;;;;;5.20;2.37;;;7.20;1.00;7.30;99338.00;;;;5066007;28;20563;-80
2022/02/16 07:04:55;;;;;;;3.97;1.90;;;6.90;1.00;7.30;99346.00;;;;5040162;28;20457;-79
2022/02/16 07:07:23;;;;;;;3.70;2.10;;;6.90;1.00;7.30;99354.00;;;;5035812;28;21228;-78
2022/02/16 07:09:52;;;;;;;4.83;2.20;;;6.90;1.00;7.40;99345.00;;;;5036137;28;20981;-79
2022/02/16 07:12:20;;;;;;;6.87;2.23;;;6.90;1.00;7.30;99336.00;;;;5068445;28;20460;-78
2022/02/16 07:14:53;;;;;;;4.63;2.30;;;6.90;1.00;7.30;99343.00;;;;5033321;28;20828;-80
2022/02/16 07:17:23;;;;;;;4.20;1.93;;;6.90;1.00;7.30;99309.00;;;;5032150;28;20949;-80
2022/02/16 07:20:29;;;;;;;5.03;2.07;;;6.90;1.00;7.30;99334.00;;;;5036948;28;20523;-79
2022/02/16 07:22:58;;;;;;;10.07;2.40;;;6.80;1.00;7.30;99322.00;;;;5068746;28;20452;-78
2022/02/16 07:25:27;;;;;;;5.10;1.50;;;6.90;1.00;7.40;99306.00;;;;5043527;28;20449;-78
2022/02/16 07:28:17;;;;;;;3.53;2.03;;;6.90;1.00;7.40;99313.00;;;;5068945;28;20540;-78
2022/02/16 07:30:48;;;;;;;4.93;2.30;;;6.90;1.00;7.40;99294.00;;;;5044274;28;20556;-80
2022/02/16 07:33:18;;;;;;;6.83;2.17;;;7.40;1.00;7.40;99300.00;;;;5052001;28;20919;-79
2022/02/16 07:35:49;;;;;;;5.77;2.47;;;7.00;1.00;7.40;99300.00;;;;5033849;28;20477;-81
2022/02/16 07:38:17;;;;;;;5.67;2.20;;;6.90;1.00;7.30;99306.00;;;;5035884;28;20578;-78
2022/02/16 07:40:47;;;;;;;3.50;2.03;;;6.90;1.00;7.40;99311.00;;;;5036645;28;20879;-78
2022/02/16 07:43:19;;;;;;;3.87;1.87;;;6.90;1.00;7.40;99290.00;;;;5068672;28;20465;-80
2022/02/16 07:46:11;;;;;;;5.53;1.80;;;6.90;1.00;7.40;99298.00;;;;5027722;28;20448;-78
2022/02/16 07:48:44;;;;;;;4.47;2.13;;;6.90;1.00;7.40;99286.00;;;;5067849;28;20452;-78
2022/02/16 07:51:33;;;;;;;3.83;1.80;;;7.10;1.00;7.40;99286.00;;;;5032978;28;20548;-79
2022/02/16 07:54:21;;;;;;;3.97;2.00;;;7.10;1.00;7.50;99282.00;;;;5032740;28;21138;-79
2022/02/16 07:56:59;;;;;;;2.90;1.90;;;7.00;1.00;7.50;99266.00;;;;5031386;28;21396;-78
2022/02/16 07:59:28;;;;;;;2.73;1.43;;;7.10;1.00;7.50;99272.00;;;;5032392;28;20455;-77
2022/02/16 08:01:57;;;;;;;3.00;2.10;;;7.10;1.00;7.60;99275.00;;;;5017189;28;20486;-77
2022/02/16 08:04:27;;;;;;;3.20;1.97;;;7.10;1.00;7.50;99270.00;;;;5039457;28;20481;-78
2022/02/16 08:07:01;;;;;;;2.53;1.40;;;7.10;1.00;7.60;99262.00;;;;5070494;28;20975;-78
2022/02/16 08:09:30;;;;;;;3.27;1.73;;;7.20;1.00;7.60;99244.00;;;;5040507;28;20456;-80
2022/02/16 08:11:58;;;;;;;5.90;1.50;;;7.20;1.00;7.60;99274.00;;;;5052679;28;20480;-80
2022/02/16 08:14:33;;;;;;;5.00;1.70;;;7.20;1.00;7.60;99262.00;;;;5033971;28;20479;-78
2022/02/16 08:17:04;;;;;;;5.00;2.00;;;7.30;1.00;7.60;99247.00;;;;5034860;28;20455;-78
2022/02/16 08:19:34;;;;;;;4.73;1.80;;;7.20;1.00;7.70;99257.00;;;;5034040;28;20493;-80
2022/02/16 08:22:02;;;;;;;2.43;1.67;;;7.20;1.00;7.70;99249.00;;;;5037893;28;20476;-77
2022/02/16 08:24:34;;;;;;;4.53;2.50;;;7.20;1.00;7.80;99256.00;;;;5050067;28;20994;-80
2022/02/16 08:27:04;;;;;;;3.20;1.70;;;7.40;1.00;7.80;99213.00;;;;5035999;28;20554;-77
2022/02/16 08:29:40;;;;;;;2.97;1.80;;;7.40;1.00;7.80;99230.00;;;;5031604;28;20555;-80
2022/02/16 08:32:20;;;;;;;2.90;1.50;;;7.40;1.00;7.80;99223.00;;;;5036260;28;20499;-78
2022/02/16 08:35:10;;;;;;;3.97;1.40;;;7.30;1.00;7.80;99223.00;;;;5035731;28;20554;-79
2022/02/16 08:37:41;;;;;;;2.80;1.70;;;7.40;1.00;7.80;99218.00;;;;5034424;28;20460;-79
2022/02/16 08:40:12;;;;;;;3.70;1.93;;;7.70;1.00;7.90;99206.00;;;;5038768;28;20467;-80
2022/02/16 08:42:41;;;;;;;4.30;1.40;;;7.40;1.00;7.90;99228.00;;;;5041105;28;20456;-78
2022/02/16 08:45:11;;;;;;;2.77;1.50;;;7.50;1.00;8.00;99223.00;;;;5034111;28;20474;-79
2022/02/16 08:47:40;;;;;;;3.60;1.50;;;7.60;1.00;8.00;99213.00;;;;5035775;28;20462;-80
2022/02/16 08:50:11;;;;;;;4.40;1.50;;;7.60;1.00;8.10;99202.00;;;;5036506;28;20480;-78
2022/02/16 08:52:40;;;;;;;4.00;1.87;;;7.60;1.00;8.10;99227.00;;;;5069132;28;20567;-78
2022/02/16 08:55:10;;;;;;;3.40;1.80;;;7.70;1.00;8.10;99212.00;;;;5038943;28;20447;-79
2022/02/16 08:57:40;;;;;;;8.63;2.30;;;7.70;1.00;8.20;99206.00;;;;5038856;28;20465;-78
2022/02/16 09:00:11;;;;;;;2.40;1.23;;;7.80;1.00;8.20;99198.00;;;;5042965;28;20542;-78
2022/02/16 09:02:39;;;;;;;3.00;1.90;;;7.80;1.00;8.30;99191.00;;;;5047586;28;20456;-80
2022/02/16 09:05:10;;;;;;;2.67;1.30;;;7.80;1.00;8.20;99180.00;;;;5063980;28;20460;-81
2022/02/16 09:07:38;;;;;;;2.03;1.20;;;7.80;1.00;8.20;99160.00;;;;5056329;28;20478;-79
2022/02/16 09:10:10;;;;;;;2.20;1.47;;;7.80;1.00;8.20;99174.00;;;;5054389;28;20504;-81
2022/02/16 09:12:40;;;;;;;2.60;1.40;;;7.80;1.00;8.20;99162.00;;;;5046717;28;20456;-79
2022/02/16 09:15:09;;;;;;;1.70;1.30;;;7.80;1.00;8.10;99152.00;;;;5045169;28;20475;-78
2022/02/16 09:17:38;;;;;;;3.13;1.60;;;7.70;1.00;8.10;99141.00;;;;5082465;28;20454;-79
2022/02/16 09:20:10;;;;;;;2.47;1.33;;;7.70;1.00;8.10;99147.00;;;;5047668;28;20515;-79
2022/02/16 09:22:40;;;;;;;3.00;1.73;;;7.60;1.00;8.10;99147.00;;;;5048052;28;20484;-79
2022/02/16 09:25:09;;;;;;;2.90;1.60;;;7.60;1.00;8.10;99155.00;;;;5046681;28;20463;-80
2022/02/16 09:27:38;;;;;;;2.50;1.93;;;7.60;1.00;8.20;99181.00;;;;5050066;28;21501;-79
2022/02/16 09:30:10;;;;;;;1.77;1.23;;;8.00;1.00;8.20;99153.00;;;;5046822;28;20568;-82
2022/02/16 09:32:38;;;;;;;2.30;1.40;;;7.70;1.00;8.30;99150.00;;;;5044948;28;20507;-79
2022/02/16 09:35:09;;;;;;;4.00;1.80;;;7.80;1.00;8.20;99145.00;;;;5037923;28;20514;-79
2022/02/16 09:37:38;;;;;;;1.63;1.47;;;7.70;1.00;8.20;99148.00;;;;5037880;28;20634;-79
2022/02/16 09:40:07;;;;;;;7.50;1.90;;;7.70;1.00;8.20;99132.00;;;;5040802;28;20486;-78
2022/02/16 09:42:37;;;;;;;3.47;1.80;;;7.70;1.00;8.20;99131.00;;;;5023978;28;20463;-79
2022/02/16 09:45:09;;;;;;;3.57;1.80;;;7.70;1.00;8.30;99150.00;;;;5041454;28;20488;-81
2022/02/16 09:47:42;;;;;;;2.77;1.90;;;7.80;1.00;8.40;99124.00;;;;5041474;28;20513;-78
2022/02/16 09:50:15;;;;;;;3.00;1.50;;;7.90;1.00;8.40;99139.00;;;;5080356;28;20484;-80
2022/02/16 09:52:44;;;;;;;3.10;1.60;;;8.00;1.00;8.50;99131.00;;;;5052227;28;20506;-81
2022/02/16 09:55:13;;;;;;;2.03;1.50;;;8.00;1.00;8.50;99126.00;;;;5034375;28;20958;-81
2022/02/16 09:57:41;;;;;;;3.70;1.60;;;8.00;1.00;8.60;99115.00;;;;5041885;28;20460;-79
2022/02/16 10:00:15;;;;;;;3.90;1.43;;;8.10;1.00;8.50;99113.00;;;;5034579;28;21012;-81
2022/02/16 10:02:47;;;;;;;3.17;1.73;;;8.10;1.00;8.60;99129.00;;;;5037125;28;20466;-81
2022/02/16 10:05:18;;;;;;;3.80;2.17;;;8.10;1.00;8.50;99135.00;;;;5038489;28;20552;-80
2022/02/16 10:07:49;;;;;;;3.33;2.27;;;8.10;1.00;8.60;99141.00;;;;5037666;28;20559;-81
2022/02/16 10:10:21;;;;;;;3.60;2.10;;;8.10;1.00;8.70;99126.00;;;;5034732;28;20877;-82
2022/02/16 10:12:52;;;;;;;4.70;2.50;;;8.20;1.00;8.70;99104.00;;;;5034757;28;22202;-77
2022/02/16 10:15:24;;;;;;;3.27;2.23;;;8.20;1.00;8.70;99126.00;;;;5033035;28;20462;-79
2022/02/16 10:18:08;;;;;;;2.30;1.70;;;8.20;1.00;8.70;99102.00;;;;5035107;28;20502;-79
2022/02/16 10:20:38;;;;;;;4.43;2.50;;;8.20;1.00;8.70;99084.00;;;;5034934;28;20465;-80
2022/02/16 10:23:07;;;;;;;2.27;1.90;;;8.20;1.00;8.60;99107.00;;;;5037532;28;20463;-81
2022/02/16 10:25:36;;;;;;;2.47;2.23;;;8.50;1.00;8.70;99117.00;;;;5039989;28;20461;-79
2022/02/16 10:28:12;;;;;;;4.23;2.67;;;8.50;1.00;8.50;99110.00;;;;5075464;28;20444;-82
2022/02/16 10:30:56;;;;;;;2.83;2.37;;;8.20;1.00;8.60;99078.00;;;;5043487;28;20537;-81
2022/02/16 10:33:27;;;;;;;2.43;2.23;;;8.20;1.00;8.70;99080.00;;;;5039611;28;20459;-80
2022/02/16 10:36:03;;;;;;;2.37;2.00;;;8.20;1.00;8.60;99098.00;;;;5041439;28;20453;-82
2022/02/16 10:38:32;;;;;;;2.70;2.33;;;8.30;1.00;8.80;99101.00;;;;5045854;28;20486;-80
2022/02/16 10:41:05;;;;;;;2.70;2.50;;;8.30;1.00;8.80;99117.00;;;;5045908;28;20482;-81
2022/02/16 10:43:37;;;;;;;2.50;1.63;;;8.40;1.00;8.90;99126.00;;;;5061693;28;20539;-80
2022/02/16 10:46:20;;;;;;;3.67;2.80;;;8.40;1.00;8.90;99130.00;;;;5048830;28;20446;-79
2022/02/16 10:49:04;;;;;;;3.57;2.10;;;8.50;1.00;8.90;99129.00;;;;5079082;28;20459;-80
2022/02/16 10:51:34;;;;;;;5.27;2.63;;;8.40;1.00;8.90;99078.00;;;;5057382;28;20571;-79
2022/02/16 10:54:17;;;;;;;2.90;2.40;;;8.50;1.00;9.10;99154.00;;;;5082307;28;20560;-80
2022/02/16 10:56:48;;;;;;;4.33;2.30;;;8.80;1.00;9.10;99130.00;;;;5048600;28;20452;-81
2022/02/16 10:59:17;;;;;;;4.20;2.20;;;8.70;1.00;9.00;99117.00;;;;5052524;28;20470;-80
2022/02/16 11:01:47;;;;;;;2.20;2.00;;;8.60;1.00;9.00;99098.00;;;;5046969;28;20468;-80
2022/02/16 11:04:17;;;;;;;5.67;2.73;;;8.70;1.00;8.90;99118.00;;;;5051285;28;20503;-79
2022/02/16 11:06:49;;;;;;;3.60;2.50;;;8.50;1.00;9.00;99114.00;;;;5054869;28;20441;-78
2022/02/16 11:09:22;;;;;;;4.03;2.23;;;8.60;1.00;9.10;99103.00;;;;5047951;28;20461;-82
2022/02/16 11:11:53;;;;;;;2.43;2.20;;;8.70;1.00;9.20;99114.00;;;;5051105;28;20974;-81
2022/02/16 11:14:28;;;;;;;3.47;2.50;;;8.80;1.00;9.20;99113.00;;;;5054495;28;20453;-81
2022/02/16 11:16:57;;;;;;;3.73;2.00;;;9.10;1.00;9.30;99100.00;;;;5044493;28;20462;-81
2022/02/16 11:19:32;;;;;;;2.83;2.23;;;8.90;1.00;9.30;99121.00;;;;5048823;28;20452;-81
2022/02/16 11:22:06;;;;;;;2.67;1.83;;;8.90;1.00;9.40;99106.00;;;;5053134;28;20499;-81
2022/02/16 11:24:37;;;;;;;2.10;1.90;;;9.00;1.00;9.40;99120.00;;;;5049211;28;20472;-83
2022/02/16 11:27:32;;;;;;;1.90;1.60;;;8.90;1.00;9.40;99101.00;;;;5044460;28;20437;-78
2022/02/16 11:30:03;;;;;;;2.27;2.00;;;9.00;1.00;9.50;99102.00;;;;5032465;28;20507;-79
2022/02/16 11:32:35;;;;;;;2.30;2.00;;;9.00;1.00;9.60;99107.00;;;;5047750;28;20567;-80
2022/02/16 11:35:17;;;;;;;1.90;1.70;;;9.20;1.00;9.60;99099.00;;;;5078447;28;20436;-81